Clay Hill, Texas
Current Conditions -  °F | °C
As of 3:35 PM on Thursday 18 Dec 2014 (Local Time) from KLXY Reporting Station
Haze Haze  
Wind Chill: 48°   Ceiling: 200
Heat Index: 50°   Visibility: 1.5mi
Dew Point: 49°   Wind: 5mph
Humidity: 98%   Direction: 40°NE
Pressure: 30.09"   Gusts: NA
Location:  31.6463°N, 96.2786°W
Report Text: KLXY 182135Z AUTO 04004KT 1 1/2SM BR OVC002 10/10 A3009 RMK AO2 T00980095
Loading
Personal Weather Stations






























Interactive Weather Map New forecast layout! Learn more

10-Day Weather Forecast

Advertisements
Track Severe Weather on mobile